Time;durP1;ratioP1;P1;durP2;ratioP2;P2;SDS_P1;SDS_P2;PMS_P1;PMS_P2;Temp;Humidity;BMP_temperature;BMP_pressure;BME280_temperature;BME280_humidity;BME280_pressure;Samples;Min_cycle;Max_cycle;Signal;HPM_P1;HPM_P2
2021/09/05 00:00:24;;;;;;;9.10;8.20;;;14.50;97.90;;;;;;5056434;28;20641;-82
2021/09/05 00:02:51;;;;;;;9.50;8.57;;;14.50;98.90;;;;;;5072856;28;20621;-83
2021/09/05 00:05:19;;;;;;;8.53;7.70;;;14.50;99.50;;;;;;5052176;28;20629;-82
2021/09/05 00:07:46;;;;;;;10.30;9.33;;;14.50;99.10;;;;;;5051449;28;21214;-82
2021/09/05 00:10:13;;;;;;;10.50;9.40;;;14.50;98.60;;;;;;5054056;28;21439;-82
2021/09/05 00:12:43;;;;;;;10.27;9.23;;;14.50;98.50;;;;;;5055006;28;20622;-82
2021/09/05 00:15:11;;;;;;;10.33;9.33;;;14.50;98.80;;;;;;5073064;28;20804;-82
2021/09/05 00:17:38;;;;;;;14.60;9.90;;;14.50;98.90;;;;;;5071028;28;21236;-82
2021/09/05 00:20:06;;;;;;;12.47;9.67;;;14.40;99.50;;;;;;5062030;28;21559;-82
2021/09/05 00:22:33;;;;;;;12.07;10.43;;;14.50;99.90;;;;;;5073488;28;21192;-82
2021/09/05 00:25:00;;;;;;;11.27;10.07;;;14.40;99.90;;;;;;5058202;28;20681;-82
2021/09/05 00:27:27;;;;;;;12.17;10.93;;;14.40;99.90;;;;;;5053193;28;20650;-82
2021/09/05 00:29:55;;;;;;;10.97;9.97;;;14.50;99.90;;;;;;5053756;28;21032;-82
2021/09/05 00:32:22;;;;;;;11.23;10.13;;;14.50;99.90;;;;;;5069361;28;20686;-82
2021/09/05 00:34:49;;;;;;;11.60;10.40;;;14.50;99.90;;;;;;5056605;28;20718;-82
2021/09/05 00:37:16;;;;;;;13.10;11.07;;;14.40;99.90;;;;;;5053107;28;20645;-82
2021/09/05 00:39:43;;;;;;;11.30;10.17;;;14.40;99.90;;;;;;5070719;28;20636;-83
2021/09/05 00:42:10;;;;;;;10.50;9.50;;;14.40;99.90;;;;;;5055476;28;20626;-83
2021/09/05 00:44:37;;;;;;;13.27;11.00;;;14.40;99.90;;;;;;5057937;28;21097;-82
2021/09/05 00:47:05;;;;;;;11.40;10.30;;;14.30;99.90;;;;;;5072732;28;20649;-82
2021/09/05 00:49:32;;;;;;;10.47;9.47;;;14.20;99.90;;;;;;5070578;28;20716;-82
2021/09/05 00:51:59;;;;;;;11.67;10.37;;;14.20;99.90;;;;;;5060623;28;20676;-82
2021/09/05 00:54:26;;;;;;;15.33;11.03;;;14.20;99.90;;;;;;5052193;28;20660;-82
2021/09/05 00:56:53;;;;;;;11.20;10.00;;;14.20;99.90;;;;;;5053168;28;20622;-82
2021/09/05 00:59:22;;;;;;;12.27;11.03;;;14.20;99.90;;;;;;5067463;28;20621;-82
2021/09/05 01:01:49;;;;;;;10.63;9.53;;;14.20;99.90;;;;;;5053700;28;20667;-82
2021/09/05 01:04:18;;;;;;;11.63;10.53;;;14.20;99.90;;;;;;5062704;28;20629;-82
2021/09/05 01:06:46;;;;;;;12.80;11.40;;;14.10;99.90;;;;;;5054289;28;20621;-82
2021/09/05 01:09:15;;;;;;;11.63;10.53;;;14.20;99.90;;;;;;5056965;28;20965;-82
2021/09/05 01:11:44;;;;;;;12.20;10.90;;;14.10;99.90;;;;;;5052124;28;21027;-82
2021/09/05 01:14:11;;;;;;;10.90;9.80;;;14.10;99.90;;;;;;5052816;28;20662;-82
2021/09/05 01:16:43;;;;;;;11.83;10.63;;;14.10;99.90;;;;;;5052479;28;20631;-82
2021/09/05 01:19:14;;;;;;;12.03;10.83;;;14.10;99.90;;;;;;5064640;28;20675;-82
2021/09/05 01:21:46;;;;;;;10.90;9.80;;;14.10;99.90;;;;;;5072448;28;20610;-82
2021/09/05 01:24:16;;;;;;;12.87;10.77;;;14.10;99.90;;;;;;5078203;28;20634;-82
2021/09/05 01:26:46;;;;;;;10.93;9.93;;;14.10;99.90;;;;;;5073070;28;20651;-82
2021/09/05 01:29:16;;;;;;;13.73;12.43;;;14.20;99.90;;;;;;5056214;28;20997;-82
2021/09/05 01:31:45;;;;;;;12.73;11.40;;;14.20;99.90;;;;;;5052915;28;21645;-82
2021/09/05 01:34:15;;;;;;;13.73;12.30;;;14.20;99.90;;;;;;5068588;28;20625;-82
2021/09/05 01:36:45;;;;;;;14.53;11.80;;;14.30;99.90;;;;;;5062087;28;20621;-82
2021/09/05 01:39:15;;;;;;;13.27;12.03;;;14.30;99.90;;;;;;5051484;28;21317;-82
2021/09/05 01:41:47;;;;;;;11.40;10.30;;;14.40;99.90;;;;;;5051880;28;20611;-82
2021/09/05 01:44:20;;;;;;;11.70;10.63;;;14.40;99.90;;;;;;5058796;28;20625;-82
2021/09/05 01:46:50;;;;;;;13.17;11.87;;;14.40;99.90;;;;;;5061555;28;20623;-82
2021/09/05 01:49:19;;;;;;;12.67;11.17;;;14.30;99.90;;;;;;5054226;28;20629;-82
2021/09/05 01:51:47;;;;;;;13.10;11.80;;;14.30;99.90;;;;;;5071435;28;21189;-82
2021/09/05 01:54:15;;;;;;;13.80;12.50;;;14.30;99.90;;;;;;5068365;28;21263;-82
2021/09/05 01:56:42;;;;;;;11.93;10.70;;;14.20;99.90;;;;;;5059530;28;21077;-82
2021/09/05 01:59:11;;;;;;;13.17;11.87;;;14.10;99.90;;;;;;5054066;28;20625;-81
2021/09/05 02:01:42;;;;;;;15.43;12.37;;;14.00;99.90;;;;;;5055358;28;20654;-82
2021/09/05 02:04:11;;;;;;;13.07;11.60;;;13.90;99.90;;;;;;5057114;28;20620;-81
2021/09/05 02:06:39;;;;;;;14.30;12.83;;;13.90;99.90;;;;;;5054487;28;20681;-82
2021/09/05 02:09:08;;;;;;;12.37;10.57;;;13.90;99.90;;;;;;5058320;28;20626;-82
2021/09/05 02:11:37;;;;;;;10.83;9.73;;;13.90;99.90;;;;;;5071357;28;20655;-82
2021/09/05 02:14:05;;;;;;;17.40;10.30;;;13.90;99.90;;;;;;5050960;28;20728;-82
2021/09/05 02:16:33;;;;;;;11.00;9.90;;;13.90;99.90;;;;;;5058486;28;20634;-82
2021/09/05 02:19:04;;;;;;;11.33;10.23;;;13.90;99.90;;;;;;5051015;28;20617;-82
2021/09/05 02:21:32;;;;;;;11.20;10.13;;;13.90;99.90;;;;;;5071081;28;20652;-82
2021/09/05 02:24:00;;;;;;;11.17;9.77;;;13.80;99.90;;;;;;5070374;28;20683;-82
2021/09/05 02:26:28;;;;;;;12.53;9.80;;;13.80;99.90;;;;;;5050742;28;21194;-81
2021/09/05 02:28:55;;;;;;;11.43;10.10;;;13.80;99.90;;;;;;5044117;28;21309;-81
2021/09/05 02:31:23;;;;;;;13.37;11.97;;;13.80;99.90;;;;;;5062088;28;20687;-82
2021/09/05 02:33:51;;;;;;;12.50;11.20;;;13.70;99.90;;;;;;5051211;28;20630;-82
2021/09/05 02:36:26;;;;;;;11.50;10.43;;;13.70;99.90;;;;;;5068789;28;21185;-82
2021/09/05 02:38:57;;;;;;;11.10;9.90;;;13.70;99.90;;;;;;5070719;28;20629;-82
2021/09/05 02:41:27;;;;;;;12.20;10.90;;;13.70;99.90;;;;;;5051009;28;20625;-82
2021/09/05 02:43:56;;;;;;;11.87;10.67;;;13.70;99.90;;;;;;5050347;28;20618;-83
2021/09/05 02:46:25;;;;;;;10.87;9.77;;;13.70;99.90;;;;;;5070113;28;20629;-82
2021/09/05 02:48:53;;;;;;;12.10;10.87;;;13.70;99.90;;;;;;5070714;28;20724;-82
2021/09/05 02:51:21;;;;;;;11.30;10.17;;;13.60;99.90;;;;;;5049900;28;20664;-82
2021/09/05 02:53:49;;;;;;;12.20;11.00;;;13.60;99.90;;;;;;5049497;28;20618;-82
2021/09/05 02:56:16;;;;;;;12.30;9.93;;;13.60;99.90;;;;;;5050555;28;20999;-81
2021/09/05 02:58:43;;;;;;;13.80;11.40;;;13.60;99.90;;;;;;5058840;28;20801;-81
2021/09/05 03:01:10;;;;;;;12.57;11.37;;;13.60;99.90;;;;;;5061351;28;21195;-81
2021/09/05 03:03:40;;;;;;;12.33;10.57;;;13.60;99.90;;;;;;5049942;28;20667;-81
2021/09/05 03:06:08;;;;;;;14.17;12.80;;;13.60;99.90;;;;;;5057873;28;20623;-81
2021/09/05 03:08:37;;;;;;;11.77;10.57;;;13.60;99.90;;;;;;5057404;28;20633;-81
2021/09/05 03:11:07;;;;;;;13.90;11.30;;;13.60;99.90;;;;;;5070345;28;20661;-81
2021/09/05 03:13:35;;;;;;;12.13;10.90;;;13.60;99.90;;;;;;5064949;28;20624;-81
2021/09/05 03:16:04;;;;;;;10.80;9.70;;;13.60;99.90;;;;;;5070014;28;21054;-81
2021/09/05 03:18:32;;;;;;;13.43;11.00;;;13.60;99.90;;;;;;5058191;28;20629;-81
2021/09/05 03:21:00;;;;;;;11.77;10.43;;;13.60;99.90;;;;;;5049519;28;20748;-81
2021/09/05 03:23:27;;;;;;;13.43;12.03;;;13.60;99.90;;;;;;5059969;28;21255;-81
2021/09/05 03:25:55;;;;;;;12.83;11.57;;;13.60;99.90;;;;;;5070226;28;20612;-81
2021/09/05 03:28:23;;;;;;;11.80;10.60;;;13.50;99.90;;;;;;5066811;28;20639;-81
2021/09/05 03:30:52;;;;;;;12.13;10.83;;;13.50;99.90;;;;;;5065022;28;20676;-81
2021/09/05 03:33:21;;;;;;;11.67;10.40;;;13.40;99.90;;;;;;5063772;28;21073;-81
2021/09/05 03:35:49;;;;;;;13.20;11.87;;;13.40;99.90;;;;;;5049875;28;21198;-81
2021/09/05 03:38:18;;;;;;;11.67;10.47;;;13.40;99.90;;;;;;5044331;28;20703;-82
2021/09/05 03:40:46;;;;;;;13.20;10.87;;;13.40;99.90;;;;;;5049157;28;20622;-81
2021/09/05 03:43:15;;;;;;;11.17;10.10;;;13.40;99.90;;;;;;5049290;28;20658;-81
2021/09/05 03:45:45;;;;;;;12.63;11.40;;;13.40;99.90;;;;;;5049296;28;20618;-81
2021/09/05 03:48:13;;;;;;;12.87;11.10;;;13.20;99.90;;;;;;5053992;28;20624;-81
2021/09/05 03:50:41;;;;;;;15.30;12.40;;;13.20;99.90;;;;;;5069922;28;20649;-81
2021/09/05 03:53:11;;;;;;;14.40;12.93;;;13.10;99.90;;;;;;5050668;28;21270;-81
2021/09/05 03:55:39;;;;;;;14.20;11.20;;;13.10;99.90;;;;;;5051065;28;20702;-81
2021/09/05 03:58:07;;;;;;;15.77;11.97;;;13.10;99.90;;;;;;5049604;28;20614;-81
2021/09/05 04:00:38;;;;;;;13.60;12.17;;;13.00;99.90;;;;;;5051497;28;20625;-81
2021/09/05 04:03:08;;;;;;;17.90;12.37;;;13.10;99.90;;;;;;5068990;28;20731;-81
2021/09/05 04:05:37;;;;;;;14.23;12.73;;;13.00;99.90;;;;;;5050916;28;20629;-82
2021/09/05 04:08:16;;;;;;;13.83;11.80;;;13.10;99.90;;;;;;5058306;28;21043;-81
2021/09/05 04:10:44;;;;;;;12.23;11.13;;;13.00;99.90;;;;;;5054076;28;20715;-81
2021/09/05 04:13:14;;;;;;;12.27;10.97;;;13.00;99.90;;;;;;5049049;28;21216;-81
2021/09/05 04:15:42;;;;;;;13.43;12.03;;;13.10;99.90;;;;;;5060696;28;20642;-81
2021/09/05 04:18:12;;;;;;;13.20;10.80;;;13.20;99.90;;;;;;5068439;28;21090;-81
2021/09/05 04:20:40;;;;;;;13.70;12.27;;;13.10;99.90;;;;;;5068235;28;20738;-81
2021/09/05 04:23:07;;;;;;;12.80;11.13;;;13.10;99.90;;;;;;5069364;28;20611;-81
2021/09/05 04:25:35;;;;;;;12.47;11.20;;;13.00;99.90;;;;;;5048237;28;20628;-81
2021/09/05 04:28:04;;;;;;;12.30;11.00;;;13.00;99.90;;;;;;5065522;28;20631;-81
2021/09/05 04:30:31;;;;;;;11.63;10.47;;;13.10;99.90;;;;;;5068605;28;20759;-81
2021/09/05 04:33:00;;;;;;;13.37;11.97;;;13.10;99.90;;;;;;5068759;28;20648;-81
2021/09/05 04:35:29;;;;;;;15.17;11.60;;;13.10;99.90;;;;;;5059542;28;20624;-81
2021/09/05 04:37:58;;;;;;;14.23;11.43;;;13.20;99.90;;;;;;5065460;28;20681;-81
2021/09/05 04:40:26;;;;;;;13.90;12.50;;;13.20;99.90;;;;;;5065777;28;20975;-81
2021/09/05 04:42:55;;;;;;;13.90;12.43;;;13.30;99.90;;;;;;5052966;28;20619;-81
2021/09/05 04:45:23;;;;;;;14.80;11.03;;;13.30;99.90;;;;;;5053029;28;20618;-81
2021/09/05 04:47:51;;;;;;;14.20;12.00;;;13.20;99.90;;;;;;5053949;28;20739;-81
2021/09/05 04:50:19;;;;;;;14.80;12.10;;;13.20;99.90;;;;;;5051623;28;20618;-81
2021/09/05 04:52:48;;;;;;;14.57;11.90;;;13.30;99.90;;;;;;5054217;28;20640;-81
2021/09/05 04:55:16;;;;;;;13.33;11.77;;;13.30;99.90;;;;;;5071236;28;20611;-81
2021/09/05 04:57:43;;;;;;;12.80;11.50;;;13.40;99.90;;;;;;5057063;28;20625;-81
2021/09/05 05:00:12;;;;;;;12.70;11.40;;;13.40;99.90;;;;;;5052626;28;20609;-81
2021/09/05 05:02:41;;;;;;;13.73;12.43;;;13.30;99.90;;;;;;5052268;28;20641;-81
2021/09/05 05:05:10;;;;;;;12.37;11.20;;;13.30;99.90;;;;;;5054938;28;20623;-81
2021/09/05 05:07:40;;;;;;;12.27;10.77;;;13.30;99.90;;;;;;5058663;28;21205;-80
2021/09/05 05:10:10;;;;;;;12.60;11.40;;;13.30;99.90;;;;;;5058026;28;20616;-81
2021/09/05 05:12:38;;;;;;;12.53;11.20;;;13.20;99.90;;;;;;5052138;28;20650;-80
2021/09/05 05:15:07;;;;;;;12.07;10.87;;;13.20;99.90;;;;;;5058656;28;21233;-81
2021/09/05 05:17:35;;;;;;;12.07;10.83;;;13.20;99.90;;;;;;5053561;28;21571;-81
2021/09/05 05:20:04;;;;;;;12.53;11.40;;;13.10;99.90;;;;;;5071045;28;21019;-81
2021/09/05 05:22:34;;;;;;;11.93;10.60;;;13.10;99.90;;;;;;5069604;28;21192;-81
2021/09/05 05:25:02;;;;;;;15.63;12.57;;;13.10;99.90;;;;;;5050707;28;20622;-80
2021/09/05 05:27:32;;;;;;;12.47;11.03;;;13.20;99.90;;;;;;5048199;28;20637;-80
2021/09/05 05:29:59;;;;;;;12.20;11.00;;;13.20;99.90;;;;;;5066670;28;20637;-81
2021/09/05 05:32:27;;;;;;;15.57;11.93;;;13.10;99.90;;;;;;5051562;28;20664;-80
2021/09/05 05:34:55;;;;;;;13.53;12.13;;;13.10;99.90;;;;;;5057436;28;20653;-80
2021/09/05 05:37:23;;;;;;;13.03;11.63;;;13.20;99.90;;;;;;5065457;28;20629;-80
2021/09/05 05:39:51;;;;;;;12.37;11.10;;;13.20;99.90;;;;;;5051683;28;20649;-80
2021/09/05 05:42:18;;;;;;;15.67;13.93;;;13.30;99.90;;;;;;5051625;28;20740;-80
2021/09/05 05:44:48;;;;;;;19.53;16.00;;;13.20;99.90;;;;;;5050660;28;20629;-81
2021/09/05 05:47:16;;;;;;;12.57;11.07;;;13.30;99.90;;;;;;5046163;28;20650;-81
2021/09/05 05:49:46;;;;;;;14.07;10.97;;;13.30;99.90;;;;;;5054711;28;20632;-80
2021/09/05 05:52:14;;;;;;;13.53;12.10;;;13.40;99.90;;;;;;5060171;28;21014;-81
2021/09/05 05:54:41;;;;;;;12.93;11.63;;;13.50;99.90;;;;;;5068983;28;20678;-81
2021/09/05 05:57:09;;;;;;;16.20;13.37;;;13.60;99.90;;;;;;5070554;28;20637;-80
2021/09/05 05:59:37;;;;;;;13.40;11.50;;;13.80;99.90;;;;;;5070963;28;20622;-81
2021/09/05 06:02:06;;;;;;;13.40;12.03;;;13.90;99.90;;;;;;5071409;28;20633;-82
2021/09/05 06:04:33;;;;;;;14.13;12.47;;;13.90;99.90;;;;;;5070868;28;20628;-82
2021/09/05 06:07:01;;;;;;;14.40;12.53;;;14.00;99.90;;;;;;5071152;28;20620;-82
2021/09/05 06:09:28;;;;;;;13.13;11.67;;;14.10;99.90;;;;;;5065993;28;20615;-83
2021/09/05 06:11:56;;;;;;;13.97;12.67;;;14.20;99.90;;;;;;5050962;28;20654;-82
2021/09/05 06:14:24;;;;;;;12.93;11.40;;;14.30;99.90;;;;;;5050760;28;20625;-82
2021/09/05 06:16:51;;;;;;;13.90;12.50;;;14.40;99.90;;;;;;5053075;28;20661;-82
2021/09/05 06:19:21;;;;;;;13.03;11.83;;;14.60;99.90;;;;;;5070851;28;20640;-82
2021/09/05 06:21:48;;;;;;;14.27;12.30;;;14.80;99.90;;;;;;5069961;28;20628;-82
2021/09/05 06:24:15;;;;;;;11.70;10.63;;;14.80;99.90;;;;;;5069862;28;20652;-81
2021/09/05 06:26:42;;;;;;;13.40;12.10;;;14.80;99.90;;;;;;5070921;28;20621;-82
2021/09/05 06:29:09;;;;;;;13.50;12.10;;;14.90;99.90;;;;;;5070762;28;20723;-82
2021/09/05 06:31:36;;;;;;;12.60;11.40;;;15.00;99.90;;;;;;5070152;28;20771;-82
2021/09/05 06:34:03;;;;;;;13.33;11.93;;;15.10;99.90;;;;;;5067833;28;20646;-82
2021/09/05 06:36:32;;;;;;;13.70;12.40;;;15.20;99.90;;;;;;5052447;28;20737;-82
2021/09/05 06:38:59;;;;;;;15.40;12.77;;;15.30;99.90;;;;;;5049655;28;20630;-82
2021/09/05 06:41:26;;;;;;;13.90;12.47;;;15.30;99.90;;;;;;5049898;28;20611;-82
2021/09/05 06:43:53;;;;;;;12.17;11.07;;;15.60;99.90;;;;;;5049478;28;21225;-82
2021/09/05 06:46:20;;;;;;;13.10;11.80;;;15.70;99.90;;;;;;5051102;28;20603;-83
2021/09/05 06:48:47;;;;;;;12.07;10.67;;;15.70;99.90;;;;;;5051487;28;20670;-82
2021/09/05 06:51:14;;;;;;;14.10;12.70;;;16.00;99.90;;;;;;5059508;28;20738;-82
2021/09/05 06:53:43;;;;;;;12.27;10.57;;;16.10;99.90;;;;;;5063015;28;20695;-82
2021/09/05 06:56:10;;;;;;;13.77;9.90;;;16.10;99.90;;;;;;5058143;28;20614;-80
2021/09/05 06:58:38;;;;;;;11.77;10.57;;;16.00;99.90;;;;;;5053243;28;20620;-80
2021/09/05 07:01:05;;;;;;;10.97;9.93;;;16.30;99.90;;;;;;5050557;28;20622;-81
2021/09/05 07:03:32;;;;;;;13.27;11.90;;;16.40;99.90;;;;;;5049118;28;20646;-80
2021/09/05 07:05:59;;;;;;;12.07;10.40;;;16.60;99.90;;;;;;5059068;28;20660;-84
2021/09/05 07:08:26;;;;;;;9.47;8.57;;;16.70;99.90;;;;;;5067169;28;20675;-83
2021/09/05 07:10:54;;;;;;;9.80;8.90;;;16.60;99.90;;;;;;5062568;28;21251;-83
2021/09/05 07:13:21;;;;;;;9.83;8.50;;;16.80;99.90;;;;;;5060345;28;20634;-83
2021/09/05 07:15:48;;;;;;;9.07;8.17;;;17.00;99.40;;;;;;5067439;28;21177;-82
2021/09/05 07:18:15;;;;;;;9.03;8.13;;;17.00;99.00;;;;;;5050564;28;20654;-82
2021/09/05 07:20:42;;;;;;;9.13;8.17;;;17.00;98.80;;;;;;5054975;28;20695;-82
2021/09/05 07:23:09;;;;;;;9.90;7.50;;;17.20;98.40;;;;;;5068782;28;20629;-82
2021/09/05 07:25:35;;;;;;;9.40;8.60;;;17.40;97.80;;;;;;5053743;28;20630;-81
2021/09/05 07:28:04;;;;;;;8.50;7.70;;;17.50;97.70;;;;;;5070554;28;20666;-81
2021/09/05 07:30:31;;;;;;;8.57;7.60;;;17.60;97.90;;;;;;5055880;28;20643;-82
2021/09/05 07:32:58;;;;;;;12.33;8.47;;;17.70;97.80;;;;;;5059452;28;20651;-82
2021/09/05 07:35:25;;;;;;;10.13;7.83;;;17.70;97.90;;;;;;5069635;28;20684;-82
2021/09/05 07:37:52;;;;;;;8.33;7.60;;;17.80;98.00;;;;;;5060930;28;20627;-82
2021/09/05 07:40:21;;;;;;;7.97;7.20;;;17.80;97.60;;;;;;5050119;28;20674;-82
2021/09/05 07:42:48;;;;;;;9.75;8.93;;;18.00;97.40;;;;;;5055846;28;20743;-82
2021/09/05 07:45:16;;;;;;;9.07;8.27;;;18.20;96.50;;;;;;5069073;28;20220;-82
2021/09/05 07:47:43;;;;;;;10.37;8.50;;;18.30;96.30;;;;;;5067886;28;20640;-83
2021/09/05 07:50:11;;;;;;;14.13;9.30;;;18.20;96.30;;;;;;5067074;28;20932;-83
2021/09/05 07:52:38;;;;;;;9.30;8.50;;;18.30;96.10;;;;;;5062557;28;20715;-82
2021/09/05 07:55:05;;;;;;;9.07;8.07;;;18.40;96.30;;;;;;5066381;28;20635;-82
2021/09/05 07:57:32;;;;;;;8.10;6.83;;;18.60;96.20;;;;;;5053478;28;21021;-82
2021/09/05 07:59:59;;;;;;;8.73;8.03;;;18.80;95.20;;;;;;5066279;28;20621;-81
2021/09/05 08:02:28;;;;;;;9.60;8.70;;;18.90;95.50;;;;;;5055184;28;20630;-82
2021/09/05 08:04:55;;;;;;;8.90;8.00;;;19.00;94.40;;;;;;5063475;28;20620;-81
2021/09/05 08:07:22;;;;;;;10.80;8.40;;;19.10;95.20;;;;;;5070004;28;20635;-82
2021/09/05 08:09:49;;;;;;;7.93;7.13;;;19.20;94.80;;;;;;5058478;28;20620;-81
2021/09/05 08:12:16;;;;;;;10.43;9.43;;;19.30;93.80;;;;;;5072955;28;20651;-81
2021/09/05 08:14:43;;;;;;;10.47;8.13;;;19.30;94.00;;;;;;5072439;28;21166;-81
2021/09/05 08:17:10;;;;;;;10.17;8.50;;;19.30;93.80;;;;;;5073547;28;21190;-82
2021/09/05 08:19:38;;;;;;;9.30;7.83;;;19.40;94.30;;;;;;5073303;28;20633;-82
2021/09/05 08:22:07;;;;;;;8.50;7.60;;;19.60;94.40;;;;;;5072958;28;20707;-82
2021/09/05 08:24:33;;;;;;;10.40;8.50;;;19.70;94.40;;;;;;5063353;28;20630;-82
2021/09/05 08:27:00;;;;;;;9.37;8.50;;;19.90;93.70;;;;;;5068985;28;21027;-81
2021/09/05 08:29:27;;;;;;;9.37;8.47;;;19.90;93.50;;;;;;5073082;28;20617;-81
2021/09/05 08:31:57;;;;;;;8.13;7.43;;;20.00;93.80;;;;;;5071284;28;20645;-83
2021/09/05 08:34:24;;;;;;;8.10;7.13;;;20.10;93.50;;;;;;5069557;28;21002;-83
2021/09/05 08:36:55;;;;;;;9.23;8.33;;;20.10;93.90;;;;;;5067354;28;20629;-83
2021/09/05 08:39:22;;;;;;;8.50;7.70;;;20.20;93.00;;;;;;5073909;28;20609;-82
2021/09/05 08:41:50;;;;;;;11.70;7.80;;;20.30;92.80;;;;;;5055843;28;20629;-81
2021/09/05 08:44:17;;;;;;;8.90;8.10;;;20.50;92.70;;;;;;5070422;28;20972;-81
2021/09/05 08:46:44;;;;;;;9.13;8.23;;;20.70;92.60;;;;;;5064404;28;20667;-82
2021/09/05 08:49:11;;;;;;;7.40;6.80;;;20.70;91.60;;;;;;5068999;28;20620;-83
2021/09/05 08:51:38;;;;;;;11.73;8.30;;;20.70;91.60;;;;;;5058421;28;21206;-84
2021/09/05 08:54:09;;;;;;;8.53;7.73;;;20.60;92.40;;;;;;5070813;28;20617;-83
2021/09/05 08:56:36;;;;;;;13.53;7.33;;;20.60;91.80;;;;;;5058066;28;20623;-83
2021/09/05 08:59:03;;;;;;;9.13;8.33;;;20.80;91.80;;;;;;5068458;28;21217;-84
2021/09/05 09:01:31;;;;;;;8.20;7.40;;;20.80;91.80;;;;;;5073034;28;20667;-83
2021/09/05 09:04:09;;;;;;;8.20;7.43;;;20.90;92.50;;;;;;5063891;28;20621;-84
2021/09/05 09:06:41;;;;;;;8.10;7.30;;;21.10;91.30;;;;;;5052552;28;20728;-84
2021/09/05 09:09:10;;;;;;;7.73;7.03;;;21.20;91.70;;;;;;5067394;28;20697;-83
2021/09/05 09:11:48;;;;;;;7.20;6.60;;;21.10;91.80;;;;;;5072487;28;20702;-83
2021/09/05 09:14:18;;;;;;;7.30;6.60;;;21.30;91.90;;;;;;5061193;28;20622;-83
2021/09/05 09:16:46;;;;;;;7.63;7.00;;;21.40;91.30;;;;;;5051971;28;20627;-83
2021/09/05 09:19:26;;;;;;;7.40;6.70;;;21.60;90.50;;;;;;5063256;28;20692;-84
2021/09/05 09:21:54;;;;;;;7.80;7.07;;;21.60;87.80;;;;;;5064827;28;20618;-84
2021/09/05 09:24:23;;;;;;;7.60;6.83;;;21.50;90.80;;;;;;5051692;28;20617;-81
2021/09/05 09:26:59;;;;;;;7.20;6.50;;;21.60;91.40;;;;;;5051965;28;20653;-84
2021/09/05 09:29:26;;;;;;;7.20;6.60;;;21.60;90.60;;;;;;5056394;28;20652;-83
2021/09/05 09:32:06;;;;;;;7.67;6.23;;;21.80;88.60;;;;;;5067282;28;20666;-85
2021/09/05 09:35:01;;;;;;;9.87;6.97;;;21.90;86.70;;;;;;5072226;28;20662;-85
2021/09/05 09:37:31;;;;;;;7.50;6.80;;;22.00;85.90;;;;;;5071738;28;20636;-85
2021/09/05 09:40:01;;;;;;;7.97;7.20;;;22.10;87.70;;;;;;5071492;28;20719;-83
2021/09/05 09:42:41;;;;;;;7.33;6.33;;;22.30;87.20;;;;;;5071862;28;20625;-85
2021/09/05 09:45:11;;;;;;;7.57;6.93;;;22.40;84.60;;;;;;5071968;28;20611;-84
2021/09/05 09:47:45;;;;;;;7.00;6.40;;;22.40;86.40;;;;;;5072088;28;21006;-85
2021/09/05 09:50:13;;;;;;;6.10;4.90;;;22.40;80.50;;;;;;5072569;28;20701;-83
2021/09/05 09:52:40;;;;;;;6.50;5.90;;;22.50;80.30;;;;;;5071012;28;20650;-84
2021/09/05 09:55:09;;;;;;;6.63;6.13;;;22.60;82.40;;;;;;5066556;28;20624;-83
2021/09/05 09:57:39;;;;;;;6.87;6.27;;;22.70;83.30;;;;;;5054365;28;20644;-83
2021/09/05 10:00:07;;;;;;;7.87;6.13;;;22.90;81.60;;;;;;5069548;28;20621;-84
2021/09/05 10:02:41;;;;;;;6.27;5.70;;;23.00;79.60;;;;;;5065604;28;20658;-87
2021/09/05 10:05:12;;;;;;;6.30;5.80;;;23.10;78.40;;;;;;5048787;28;20621;-84
2021/09/05 10:07:39;;;;;;;6.60;6.00;;;23.20;80.10;;;;;;5054333;28;20609;-84
2021/09/05 10:10:11;;;;;;;6.40;5.80;;;23.20;78.40;;;;;;5057565;28;20636;-83
2021/09/05 10:12:41;;;;;;;7.53;6.70;;;23.30;79.40;;;;;;5051264;28;20649;-84
2021/09/05 10:15:14;;;;;;;6.67;6.07;;;23.30;76.90;;;;;;5050906;28;20609;-84
2021/09/05 10:17:41;;;;;;;6.43;5.83;;;23.30;77.40;;;;;;5050489;28;20626;-84
2021/09/05 10:20:10;;;;;;;6.23;5.83;;;23.40;76.00;;;;;;5051154;28;20626;-84
2021/09/05 10:22:36;;;;;;;7.07;6.47;;;23.60;77.30;;;;;;5051175;28;20664;-84
2021/09/05 10:25:06;;;;;;;6.83;6.13;;;23.70;75.30;;;;;;5064618;28;20678;-83
2021/09/05 10:27:37;;;;;;;6.40;5.90;;;23.80;74.60;;;;;;5070249;28;20637;-83
2021/09/05 10:30:15;;;;;;;7.50;6.80;;;24.00;75.20;;;;;;5059698;28;20630;-83
2021/09/05 10:32:51;;;;;;;6.30;5.63;;;24.00;74.40;;;;;;5051234;28;21266;-84
2021/09/05 10:35:46;;;;;;;6.20;5.70;;;24.00;74.20;;;;;;5050553;28;20729;-83
2021/09/05 10:38:22;;;;;;;6.63;6.00;;;24.10;73.80;;;;;;5082021;28;20612;-85
2021/09/05 10:40:52;;;;;;;7.40;5.50;;;24.20;74.40;;;;;;5070793;28;20605;-85
2021/09/05 10:43:22;;;;;;;6.40;5.90;;;24.50;72.30;;;;;;5069538;28;20612;-85
2021/09/05 10:45:51;;;;;;;5.73;5.30;;;24.70;69.60;;;;;;5070073;28;20597;-85
2021/09/05 10:48:35;;;;;;;5.77;5.27;;;24.60;69.60;;;;;;5069442;28;20620;-85
2021/09/05 10:51:40;;;;;;;5.73;5.33;;;24.60;65.80;;;;;;5067164;28;21197;-86
2021/09/05 10:54:22;;;;;;;5.53;5.07;;;24.40;68.30;;;;;;5070133;28;20661;-85
2021/09/05 10:57:02;;;;;;;6.13;5.63;;;24.30;69.70;;;;;;5053104;28;20614;-85
2021/09/05 10:59:37;;;;;;;6.00;5.50;;;24.40;69.10;;;;;;5068428;28;20626;-84
2021/09/05 11:02:05;;;;;;;5.23;4.73;;;24.60;67.90;;;;;;5070549;28;20712;-85
2021/09/05 11:04:43;;;;;;;5.03;4.63;;;24.80;66.80;;;;;;5056438;28;21201;-83
2021/09/05 11:07:12;;;;;;;6.43;5.83;;;24.80;64.60;;;;;;5050399;28;20620;-84
2021/09/05 11:09:49;;;;;;;4.50;4.20;;;24.70;64.20;;;;;;5068953;28;20621;-83
2021/09/05 11:12:40;;;;;;;4.83;4.50;;;24.80;61.10;;;;;;5069896;28;20632;-84
2021/09/05 11:15:19;;;;;;;5.37;4.87;;;24.80;58.30;;;;;;5070213;28;20645;-84
2021/09/05 11:17:56;;;;;;;5.60;5.10;;;24.90;60.10;;;;;;5070316;28;20645;-85
2021/09/05 11:20:26;;;;;;;6.07;5.50;;;24.90;63.60;;;;;;5070122;28;20698;-85
2021/09/05 11:22:56;;;;;;;5.97;5.47;;;24.90;62.60;;;;;;5054533;28;20633;-84
2021/09/05 11:25:26;;;;;;;5.63;5.13;;;25.10;66.40;;;;;;5050148;28;20610;-83
2021/09/05 11:27:56;;;;;;;6.30;4.70;;;25.20;61.00;;;;;;5050309;28;20634;-84
2021/09/05 11:30:28;;;;;;;7.47;6.20;;;25.30;64.40;;;;;;5062080;28;21225;-85
2021/09/05 11:33:00;;;;;;;5.23;4.83;;;25.40;60.80;;;;;;5069865;28;20660;-83
2021/09/05 11:35:28;;;;;;;5.20;4.80;;;25.50;60.00;;;;;;5069982;28;20628;-82
2021/09/05 11:37:56;;;;;;;4.97;4.57;;;25.80;61.30;;;;;;5067954;28;20630;-83
2021/09/05 11:40:24;;;;;;;5.17;4.67;;;26.10;58.10;;;;;;5072012;28;20617;-83
2021/09/05 11:42:53;;;;;;;5.67;5.17;;;26.30;57.50;;;;;;5074567;28;20629;-83
2021/09/05 11:45:36;;;;;;;5.17;4.43;;;26.40;58.40;;;;;;5068469;28;20633;-86
2021/09/05 11:48:04;;;;;;;5.00;4.60;;;26.50;58.30;;;;;;5073947;28;20609;-84
2021/09/05 11:50:33;;;;;;;5.40;4.93;;;26.50;58.20;;;;;;5067572;28;20626;-84
2021/09/05 11:53:00;;;;;;;5.07;4.70;;;26.80;58.60;;;;;;5053227;28;20649;-83
2021/09/05 11:55:27;;;;;;;4.73;4.43;;;27.10;57.90;;;;;;5058213;28;20616;-83
2021/09/05 11:57:55;;;;;;;7.57;4.00;;;27.20;55.90;;;;;;5073710;28;20617;-84
2021/09/05 12:00:30;;;;;;;4.27;3.97;;;27.10;54.70;;;;;;5069381;28;20657;-85
2021/09/05 12:02:57;;;;;;;4.80;4.50;;;26.80;54.60;;;;;;5072703;28;20624;-84
2021/09/05 12:05:25;;;;;;;4.53;4.07;;;26.20;57.00;;;;;;5053797;28;20615;-85
2021/09/05 12:07:52;;;;;;;4.40;4.10;;;26.10;57.30;;;;;;5053719;28;20949;-84
2021/09/05 12:10:20;;;;;;;4.93;4.57;;;26.10;55.90;;;;;;5053453;28;20622;-83
2021/09/05 12:12:59;;;;;;;5.47;4.90;;;25.90;56.10;;;;;;5053568;28;20610;-85
2021/09/05 12:15:32;;;;;;;4.70;4.40;;;25.90;57.30;;;;;;5053435;28;20628;-85
2021/09/05 12:18:00;;;;;;;4.63;4.17;;;25.50;58.00;;;;;;5053622;28;21374;-85
2021/09/05 12:20:41;;;;;;;5.87;5.37;;;25.30;57.90;;;;;;5053064;28;20637;-85
2021/09/05 12:23:19;;;;;;;5.27;4.87;;;25.40;58.50;;;;;;5071217;28;20716;-85
2021/09/05 12:25:46;;;;;;;5.77;5.27;;;25.40;58.90;;;;;;5053658;28;20660;-85
2021/09/05 12:28:21;;;;;;;5.87;5.37;;;25.60;58.30;;;;;;5053685;28;20609;-85
2021/09/05 12:30:55;;;;;;;5.03;4.63;;;25.70;59.20;;;;;;5053342;28;20626;-84
2021/09/05 12:33:32;;;;;;;5.73;5.23;;;25.50;60.00;;;;;;5053736;28;20670;-86
2021/09/05 12:36:10;;;;;;;8.30;4.80;;;25.60;60.70;;;;;;5053464;28;20602;-86
2021/09/05 12:38:38;;;;;;;5.40;5.00;;;25.80;60.60;;;;;;5053783;28;20610;-85
2021/09/05 12:41:06;;;;;;;5.63;5.13;;;25.80;59.40;;;;;;5053063;28;20614;-86
2021/09/05 12:43:42;;;;;;;4.47;4.07;;;26.00;59.80;;;;;;5053070;28;20683;-87
2021/09/05 12:46:10;;;;;;;5.37;4.97;;;26.10;57.60;;;;;;5053683;28;21245;-87